sensor_id;sensor_type;location;lat;lon;timestamp;pressure;altitude;pressure_sealevel;temperature;humidity
77799;BME280;66989;50.426;15.352;2023-03-16T00:00:19;98682.16;;;-2.47;100.00
77799;BME280;66989;50.426;15.352;2023-03-16T00:02:45;98692.53;;;-2.50;100.00
77799;BME280;66989;50.426;15.352;2023-03-16T00:05:12;98681.38;;;-2.52;100.00
77799;BME280;66989;50.426;15.352;2023-03-16T00:07:38;98687.47;;;-2.56;100.00
77799;BME280;66989;50.426;15.352;2023-03-16T00:10:04;98685.72;;;-2.55;100.00
77799;BME280;66989;50.426;15.352;2023-03-16T00:12:30;98676.16;;;-2.49;100.00
77799;BME280;66989;50.426;15.352;2023-03-16T00:15:00;98685.53;;;-2.45;100.00
77799;BME280;66989;50.426;15.352;2023-03-16T00:17:29;98683.72;;;-2.38;100.00
77799;BME280;66989;50.426;15.352;2023-03-16T00:19:56;98681.13;;;-2.36;100.00
77799;BME280;66989;50.426;15.352;2023-03-16T00:22:23;98687.13;;;-2.36;100.00
77799;BME280;66989;50.426;15.352;2023-03-16T00:24:48;98688.06;;;-2.40;100.00
77799;BME280;66989;50.426;15.352;2023-03-16T00:27:14;98690.69;;;-2.43;100.00
77799;BME280;66989;50.426;15.352;2023-03-16T00:29:41;98691.66;;;-2.49;100.00
77799;BME280;66989;50.426;15.352;2023-03-16T00:32:17;98691.69;;;-2.52;100.00
77799;BME280;66989;50.426;15.352;2023-03-16T00:34:44;98699.50;;;-2.55;100.00
77799;BME280;66989;50.426;15.352;2023-03-16T00:37:11;98701.22;;;-2.55;100.00
77799;BME280;66989;50.426;15.352;2023-03-16T00:39:42;98693.41;;;-2.51;100.00
77799;BME280;66989;50.426;15.352;2023-03-16T00:42:09;98694.34;;;-2.55;100.00
77799;BME280;66989;50.426;15.352;2023-03-16T00:44:36;98694.22;;;-2.47;100.00
77799;BME280;66989;50.426;15.352;2023-03-16T00:47:02;98696.00;;;-2.52;100.00
77799;BME280;66989;50.426;15.352;2023-03-16T00:49:28;98697.75;;;-2.53;100.00
77799;BME280;66989;50.426;15.352;2023-03-16T00:51:53;98696.94;;;-2.55;100.00
77799;BME280;66989;50.426;15.352;2023-03-16T00:54:19;98700.34;;;-2.54;100.00
77799;BME280;66989;50.426;15.352;2023-03-16T00:56:46;98699.50;;;-2.55;100.00
77799;BME280;66989;50.426;15.352;2023-03-16T00:59:11;98700.28;;;-2.50;100.00
77799;BME280;66989;50.426;15.352;2023-03-16T01:01:37;98697.75;;;-2.53;100.00
77799;BME280;66989;50.426;15.352;2023-03-16T01:04:03;98699.34;;;-2.46;100.00
77799;BME280;66989;50.426;15.352;2023-03-16T01:06:28;98702.00;;;-2.50;100.00
77799;BME280;66989;50.426;15.352;2023-03-16T01:08:54;98700.31;;;-2.53;100.00
77799;BME280;66989;50.426;15.352;2023-03-16T01:11:21;98706.38;;;-2.54;100.00
77799;BME280;66989;50.426;15.352;2023-03-16T01:13:48;98709.84;;;-2.55;100.00
77799;BME280;66989;50.426;15.352;2023-03-16T01:16:17;98710.75;;;-2.60;100.00
77799;BME280;66989;50.426;15.352;2023-03-16T01:18:43;98708.25;;;-2.63;100.00
77799;BME280;66989;50.426;15.352;2023-03-16T01:21:09;98704.81;;;-2.65;100.00
77799;BME280;66989;50.426;15.352;2023-03-16T01:23:38;98705.69;;;-2.66;100.00
77799;BME280;66989;50.426;15.352;2023-03-16T01:26:04;98705.69;;;-2.66;100.00
77799;BME280;66989;50.426;15.352;2023-03-16T01:28:31;98719.44;;;-2.64;100.00
77799;BME280;66989;50.426;15.352;2023-03-16T01:31:08;98711.63;;;-2.60;100.00
77799;BME280;66989;50.426;15.352;2023-03-16T01:33:35;98715.91;;;-2.59;100.00
77799;BME280;66989;50.426;15.352;2023-03-16T01:36:12;98715.81;;;-2.53;100.00
77799;BME280;66989;50.426;15.352;2023-03-16T01:38:38;98713.25;;;-2.56;100.00
77799;BME280;66989;50.426;15.352;2023-03-16T01:41:04;98716.72;;;-2.57;100.00
77799;BME280;66989;50.426;15.352;2023-03-16T01:43:31;98715.03;;;-2.58;100.00
77799;BME280;66989;50.426;15.352;2023-03-16T01:48:39;98723.75;;;-2.65;100.00
77799;BME280;66989;50.426;15.352;2023-03-16T01:51:22;98723.78;;;-2.68;100.00
77799;BME280;66989;50.426;15.352;2023-03-16T01:53:50;98720.41;;;-2.70;100.00
77799;BME280;66989;50.426;15.352;2023-03-16T01:56:22;98717.88;;;-2.75;100.00
77799;BME280;66989;50.426;15.352;2023-03-16T01:58:48;98724.69;;;-2.69;100.00
77799;BME280;66989;50.426;15.352;2023-03-16T02:01:15;98724.78;;;-2.75;100.00
77799;BME280;66989;50.426;15.352;2023-03-16T02:03:42;98722.19;;;-2.75;100.00
77799;BME280;66989;50.426;15.352;2023-03-16T02:06:11;98722.19;;;-2.75;100.00
77799;BME280;66989;50.426;15.352;2023-03-16T02:08:39;98718.72;;;-2.74;100.00
77799;BME280;66989;50.426;15.352;2023-03-16T02:11:06;98723.00;;;-2.73;100.00
77799;BME280;66989;50.426;15.352;2023-03-16T02:13:33;98727.28;;;-2.72;100.00
77799;BME280;66989;50.426;15.352;2023-03-16T02:16:02;98728.06;;;-2.67;100.00
77799;BME280;66989;50.426;15.352;2023-03-16T02:18:29;98727.34;;;-2.75;100.00
77799;BME280;66989;50.426;15.352;2023-03-16T02:21:04;98725.69;;;-2.79;100.00
77799;BME280;66989;50.426;15.352;2023-03-16T02:23:31;98731.75;;;-2.83;100.00
77799;BME280;66989;50.426;15.352;2023-03-16T02:26:10;98730.00;;;-2.80;100.00
77799;BME280;66989;50.426;15.352;2023-03-16T02:28:52;98727.44;;;-2.83;100.00
77799;BME280;66989;50.426;15.352;2023-03-16T02:31:20;98736.09;;;-2.87;100.00
77799;BME280;66989;50.426;15.352;2023-03-16T02:33:47;98733.53;;;-2.87;100.00
77799;BME280;66989;50.426;15.352;2023-03-16T02:36:14;98741.28;;;-2.88;100.00
77799;BME280;66989;50.426;15.352;2023-03-16T02:38:41;98742.25;;;-2.94;100.00
77799;BME280;66989;50.426;15.352;2023-03-16T02:41:13;98738.91;;;-3.01;100.00
77799;BME280;66989;50.426;15.352;2023-03-16T02:43:44;98744.88;;;-2.99;100.00
77799;BME280;66989;50.426;15.352;2023-03-16T02:46:12;98752.72;;;-3.06;100.00
77799;BME280;66989;50.426;15.352;2023-03-16T02:48:58;98757.00;;;-3.07;100.00
77799;BME280;66989;50.426;15.352;2023-03-16T02:51:27;98762.22;;;-3.10;100.00
77799;BME280;66989;50.426;15.352;2023-03-16T02:53:53;98759.69;;;-3.13;100.00
77799;BME280;66989;50.426;15.352;2023-03-16T02:56:18;98769.16;;;-3.15;100.00
77799;BME280;66989;50.426;15.352;2023-03-16T02:58:43;98763.94;;;-3.12;100.00
77799;BME280;66989;50.426;15.352;2023-03-16T03:01:09;98762.25;;;-3.13;100.00
77799;BME280;66989;50.426;15.352;2023-03-16T03:03:36;98764.84;;;-3.13;100.00
77799;BME280;66989;50.426;15.352;2023-03-16T03:06:01;98762.31;;;-3.16;100.00
77799;BME280;66989;50.426;15.352;2023-03-16T03:08:26;98768.38;;;-3.20;100.00
77799;BME280;66989;50.426;15.352;2023-03-16T03:10:52;98764.09;;;-3.22;100.00
77799;BME280;66989;50.426;15.352;2023-03-16T03:13:17;98768.41;;;-3.23;100.00
77799;BME280;66989;50.426;15.352;2023-03-16T03:15:42;98777.88;;;-3.25;100.00
77799;BME280;66989;50.426;15.352;2023-03-16T03:18:08;98776.22;;;-3.29;100.00
77799;BME280;66989;50.426;15.352;2023-03-16T03:20:33;98776.28;;;-3.32;100.00
77799;BME280;66989;50.426;15.352;2023-03-16T03:22:59;98778.78;;;-3.29;100.00
77799;BME280;66989;50.426;15.352;2023-03-16T03:25:24;98783.94;;;-3.26;100.00
77799;BME280;66989;50.426;15.352;2023-03-16T03:27:50;98779.66;;;-3.30;100.00
77799;BME280;66989;50.426;15.352;2023-03-16T03:30:20;98780.53;;;-3.33;100.00
77799;BME280;66989;50.426;15.352;2023-03-16T03:32:46;98791.78;;;-3.37;100.00
77799;BME280;66989;50.426;15.352;2023-03-16T03:35:13;98780.63;;;-3.39;100.00
77799;BME280;66989;50.426;15.352;2023-03-16T03:37:41;98780.63;;;-3.37;100.00
77799;BME280;66989;50.426;15.352;2023-03-16T03:40:08;98780.63;;;-3.39;100.00
77799;BME280;66989;50.426;15.352;2023-03-16T03:42:34;98787.56;;;-3.42;100.00
77799;BME280;66989;50.426;15.352;2023-03-16T03:44:59;98785.81;;;-3.42;100.00
77799;BME280;66989;50.426;15.352;2023-03-16T03:47:25;98782.41;;;-3.44;100.00
77799;BME280;66989;50.426;15.352;2023-03-16T03:49:50;98783.28;;;-3.45;100.00
77799;BME280;66989;50.426;15.352;2023-03-16T03:52:16;98789.31;;;-3.46;100.00
77799;BME280;66989;50.426;15.352;2023-03-16T03:54:41;98795.38;;;-3.52;100.00
77799;BME280;66989;50.426;15.352;2023-03-16T03:57:06;98807.34;;;-3.46;100.00
77799;BME280;66989;50.426;15.352;2023-03-16T03:59:32;98797.97;;;-3.52;100.00
77799;BME280;66989;50.426;15.352;2023-03-16T04:01:59;98801.41;;;-3.54;100.00
77799;BME280;66989;50.426;15.352;2023-03-16T04:04:24;98791.94;;;-3.51;100.00
77799;BME280;66989;50.426;15.352;2023-03-16T04:06:49;98800.59;;;-3.58;100.00
77799;BME280;66989;50.426;15.352;2023-03-16T04:09:15;98808.34;;;-3.61;100.00
77799;BME280;66989;50.426;15.352;2023-03-16T04:11:41;98804.91;;;-3.60;100.00
77799;BME280;66989;50.426;15.352;2023-03-16T04:14:06;98811.75;;;-3.57;100.00
77799;BME280;66989;50.426;15.352;2023-03-16T04:16:32;98811.69;;;-3.51;100.00
77799;BME280;66989;50.426;15.352;2023-03-16T04:18:58;98815.19;;;-3.58;100.00
77799;BME280;66989;50.426;15.352;2023-03-16T04:21:23;98815.19;;;-3.58;100.00
77799;BME280;66989;50.426;15.352;2023-03-16T04:23:49;98820.34;;;-3.58;100.00
77799;BME280;66989;50.426;15.352;2023-03-16T04:26:19;98820.31;;;-3.55;100.00
77799;BME280;66989;50.426;15.352;2023-03-16T04:28:45;98820.34;;;-3.58;100.00
77799;BME280;66989;50.426;15.352;2023-03-16T04:31:11;98821.19;;;-3.56;100.00
77799;BME280;66989;50.426;15.352;2023-03-16T04:33:38;98824.63;;;-3.56;100.00
77799;BME280;66989;50.426;15.352;2023-03-16T04:36:05;98828.06;;;-3.57;100.00
77799;BME280;66989;50.426;15.352;2023-03-16T04:38:32;98834.06;;;-3.55;100.00
77799;BME280;66989;50.426;15.352;2023-03-16T04:40:59;98830.63;;;-3.55;100.00
77799;BME280;66989;50.426;15.352;2023-03-16T04:43:25;98835.81;;;-3.57;100.00
77799;BME280;66989;50.426;15.352;2023-03-16T04:45:54;98835.81;;;-3.57;100.00
77799;BME280;66989;50.426;15.352;2023-03-16T04:48:19;98837.50;;;-3.56;100.00
77799;BME280;66989;50.426;15.352;2023-03-16T04:50:47;98836.69;;;-3.58;100.00
77799;BME280;66989;50.426;15.352;2023-03-16T04:53:13;98844.41;;;-3.58;100.00
77799;BME280;66989;50.426;15.352;2023-03-16T04:55:38;98836.69;;;-3.58;100.00
77799;BME280;66989;50.426;15.352;2023-03-16T04:58:04;98842.66;;;-3.56;100.00
77799;BME280;66989;50.426;15.352;2023-03-16T05:00:29;98841.78;;;-3.55;100.00
77799;BME280;66989;50.426;15.352;2023-03-16T05:02:55;98844.34;;;-3.53;100.00
77799;BME280;66989;50.426;15.352;2023-03-16T05:05:20;98838.34;;;-3.54;100.00
77799;BME280;66989;50.426;15.352;2023-03-16T05:07:46;98841.78;;;-3.55;100.00
77799;BME280;66989;50.426;15.352;2023-03-16T05:10:13;98843.44;;;-3.47;100.00
77799;BME280;66989;50.426;15.352;2023-03-16T05:12:39;98844.25;;;-3.44;100.00
77799;BME280;66989;50.426;15.352;2023-03-16T05:15:05;98842.53;;;-3.43;100.00
77799;BME280;66989;50.426;15.352;2023-03-16T05:17:31;98843.38;;;-3.41;100.00
77799;BME280;66989;50.426;15.352;2023-03-16T05:19:57;98840.81;;;-3.41;100.00
77799;BME280;66989;50.426;15.352;2023-03-16T05:22:22;98851.94;;;-3.39;100.00
77799;BME280;66989;50.426;15.352;2023-03-16T05:24:48;98851.91;;;-3.35;100.00
77799;BME280;66989;50.426;15.352;2023-03-16T05:27:13;98855.25;;;-3.28;100.00
77799;BME280;66989;50.426;15.352;2023-03-16T05:29:39;98852.69;;;-3.28;100.00
77799;BME280;66989;50.426;15.352;2023-03-16T05:32:04;98856.09;;;-3.25;100.00
77799;BME280;66989;50.426;15.352;2023-03-16T05:34:30;98849.19;;;-3.22;100.00
77799;BME280;66989;50.426;15.352;2023-03-16T05:36:56;98855.94;;;-3.12;100.00
77799;BME280;66989;50.426;15.352;2023-03-16T05:39:21;98855.03;;;-3.08;100.00
77799;BME280;66989;50.426;15.352;2023-03-16T05:41:47;98864.44;;;-3.03;100.00
77799;BME280;66989;50.426;15.352;2023-03-16T05:44:13;98860.91;;;-2.94;100.00
77799;BME280;66989;50.426;15.352;2023-03-16T05:46:39;98864.16;;;-2.81;100.00
77799;BME280;66989;50.426;15.352;2023-03-16T05:49:05;98866.66;;;-2.74;100.00
77799;BME280;66989;50.426;15.352;2023-03-16T05:51:30;98869.13;;;-2.64;100.00
77799;BME280;66989;50.426;15.352;2023-03-16T05:53:56;98875.03;;;-2.55;100.00
77799;BME280;66989;50.426;15.352;2023-03-16T05:56:26;98865.41;;;-2.43;100.00
77799;BME280;66989;50.426;15.352;2023-03-16T05:58:52;98869.66;;;-2.41;100.00
77799;BME280;66989;50.426;15.352;2023-03-16T06:01:19;98869.66;;;-2.41;100.00
77799;BME280;66989;50.426;15.352;2023-03-16T06:03:46;98872.25;;;-2.41;99.96
77799;BME280;66989;50.426;15.352;2023-03-16T06:06:13;98876.53;;;-2.38;99.80
77799;BME280;66989;50.426;15.352;2023-03-16T06:08:39;98883.41;;;-2.37;99.73
77799;BME280;66989;50.426;15.352;2023-03-16T06:11:04;98882.50;;;-2.36;99.41
77799;BME280;66989;50.426;15.352;2023-03-16T06:13:30;98891.88;;;-2.29;99.42
77799;BME280;66989;50.426;15.352;2023-03-16T06:15:55;98890.03;;;-2.21;99.72
77799;BME280;66989;50.426;15.352;2023-03-16T06:18:21;98889.06;;;-2.12;99.21
77799;BME280;66989;50.426;15.352;2023-03-16T06:20:46;98890.56;;;-1.98;98.80
77799;BME280;66989;50.426;15.352;2023-03-16T06:23:12;98891.16;;;-1.80;99.43
77799;BME280;66989;50.426;15.352;2023-03-16T06:25:38;98880.25;;;-1.48;98.97
77799;BME280;66989;50.426;15.352;2023-03-16T06:28:04;98883.91;;;-0.67;98.89
77799;BME280;66989;50.426;15.352;2023-03-16T06:30:30;98893.03;;;0.27;98.76
77799;BME280;66989;50.426;15.352;2023-03-16T06:32:56;98886.38;;;1.17;97.09
77799;BME280;66989;50.426;15.352;2023-03-16T06:35:25;98878.75;;;2.00;92.16
77799;BME280;66989;50.426;15.352;2023-03-16T06:37:51;98872.69;;;2.77;87.29
77799;BME280;66989;50.426;15.352;2023-03-16T06:40:16;98873.69;;;3.23;80.02
77799;BME280;66989;50.426;15.352;2023-03-16T06:42:42;98871.34;;;3.86;76.36
77799;BME280;66989;50.426;15.352;2023-03-16T06:45:08;98874.63;;;4.13;73.92
77799;BME280;66989;50.426;15.352;2023-03-16T06:47:34;98872.31;;;4.27;72.32
77799;BME280;66989;50.426;15.352;2023-03-16T06:49:59;98884.03;;;4.39;69.83
77799;BME280;66989;50.426;15.352;2023-03-16T06:52:25;98885.16;;;4.54;70.45
77799;BME280;66989;50.426;15.352;2023-03-16T06:54:51;98893.28;;;4.88;68.06
77799;BME280;66989;50.426;15.352;2023-03-16T06:57:16;98896.06;;;4.84;65.55
77799;BME280;66989;50.426;15.352;2023-03-16T06:59:41;98897.94;;;4.40;66.79
77799;BME280;66989;50.426;15.352;2023-03-16T07:02:10;98894.28;;;4.22;69.33
77799;BME280;66989;50.426;15.352;2023-03-16T07:04:39;98888.88;;;4.69;66.75
77799;BME280;66989;50.426;15.352;2023-03-16T07:07:06;98895.50;;;4.77;66.36
77799;BME280;66989;50.426;15.352;2023-03-16T07:09:33;98901.56;;;4.98;68.03
77799;BME280;66989;50.426;15.352;2023-03-16T07:11:58;98901.91;;;5.31;65.42
77799;BME280;66989;50.426;15.352;2023-03-16T07:14:23;98893.09;;;5.90;61.57
77799;BME280;66989;50.426;15.352;2023-03-16T07:16:51;98899.59;;;5.63;63.62
77799;BME280;66989;50.426;15.352;2023-03-16T07:19:27;98912.72;;;5.43;64.95
77799;BME280;66989;50.426;15.352;2023-03-16T07:21:56;98918.63;;;4.86;65.74
77799;BME280;66989;50.426;15.352;2023-03-16T07:24:21;98911.34;;;4.95;65.50
77799;BME280;66989;50.426;15.352;2023-03-16T07:26:46;98922.81;;;5.31;63.66
77799;BME280;66989;50.426;15.352;2023-03-16T07:29:12;98920.59;;;5.02;63.48
77799;BME280;66989;50.426;15.352;2023-03-16T07:31:38;98921.13;;;4.90;66.14
77799;BME280;66989;50.426;15.352;2023-03-16T07:34:04;98921.63;;;5.38;63.70
77799;BME280;66989;50.426;15.352;2023-03-16T07:36:29;98929.31;;;6.00;61.75
77799;BME280;66989;50.426;15.352;2023-03-16T07:38:55;98918.06;;;5.98;61.61
77799;BME280;66989;50.426;15.352;2023-03-16T07:41:21;98899.91;;;5.95;60.96
77799;BME280;66989;50.426;15.352;2023-03-16T07:43:47;98911.53;;;6.25;62.23
77799;BME280;66989;50.426;15.352;2023-03-16T07:46:13;98909.69;;;6.27;61.45
77799;BME280;66989;50.426;15.352;2023-03-16T07:48:40;98911.22;;;6.14;61.60
77799;BME280;66989;50.426;15.352;2023-03-16T07:51:07;98913.91;;;5.94;62.41
77799;BME280;66989;50.426;15.352;2023-03-16T07:53:32;98921.06;;;5.51;63.95
77799;BME280;66989;50.426;15.352;2023-03-16T07:55:58;98922.66;;;5.92;62.20
77799;BME280;66989;50.426;15.352;2023-03-16T07:58:23;98927.03;;;5.92;61.79
77799;BME280;66989;50.426;15.352;2023-03-16T08:00:49;98936.72;;;5.32;64.97
77799;BME280;66989;50.426;15.352;2023-03-16T08:03:14;98938.63;;;5.08;65.89
77799;BME280;66989;50.426;15.352;2023-03-16T08:05:39;98942.84;;;4.48;67.90
77799;BME280;66989;50.426;15.352;2023-03-16T08:08:06;98938.25;;;5.17;65.34
77799;BME280;66989;50.426;15.352;2023-03-16T08:10:34;98941.13;;;4.69;66.08
77799;BME280;66989;50.426;15.352;2023-03-16T08:13:01;98928.16;;;5.08;65.57
77799;BME280;66989;50.426;15.352;2023-03-16T08:15:29;98933.66;;;5.02;65.78
77799;BME280;66989;50.426;15.352;2023-03-16T08:17:57;98931.44;;;4.93;65.85
77799;BME280;66989;50.426;15.352;2023-03-16T08:20:23;98933.94;;;4.74;66.45
77799;BME280;66989;50.426;15.352;2023-03-16T08:22:48;98943.06;;;3.98;68.11
77799;BME280;66989;50.426;15.352;2023-03-16T08:25:14;98944.38;;;4.31;69.65
77799;BME280;66989;50.426;15.352;2023-03-16T08:27:40;98941.59;;;3.91;70.19
77799;BME280;66989;50.426;15.352;2023-03-16T08:30:08;98956.97;;;3.98;70.53
77799;BME280;66989;50.426;15.352;2023-03-16T08:32:35;98942.13;;;4.66;67.57
77799;BME280;66989;50.426;15.352;2023-03-16T08:35:02;98953.34;;;4.68;68.11
77799;BME280;66989;50.426;15.352;2023-03-16T08:37:28;98948.47;;;4.15;67.75
77799;BME280;66989;50.426;15.352;2023-03-16T08:39:54;98948.53;;;3.68;72.48
77799;BME280;66989;50.426;15.352;2023-03-16T08:42:19;98951.38;;;3.37;71.78
77799;BME280;66989;50.426;15.352;2023-03-16T08:44:45;98958.47;;;2.82;75.19
77799;BME280;66989;50.426;15.352;2023-03-16T08:47:12;98964.44;;;2.59;76.12
77799;BME280;66989;50.426;15.352;2023-03-16T08:49:40;98968.53;;;2.12;78.27
77799;BME280;66989;50.426;15.352;2023-03-16T08:52:06;98967.88;;;2.33;77.28
77799;BME280;66989;50.426;15.352;2023-03-16T08:54:34;98977.25;;;2.09;79.22
77799;BME280;66989;50.426;15.352;2023-03-16T08:57:00;98970.63;;;1.99;79.57
77799;BME280;66989;50.426;15.352;2023-03-16T08:59:25;98974.53;;;2.14;78.33
77799;BME280;66989;50.426;15.352;2023-03-16T09:01:50;98986.16;;;2.02;78.44
77799;BME280;66989;50.426;15.352;2023-03-16T09:04:16;98974.16;;;2.54;78.07
77799;BME280;66989;50.426;15.352;2023-03-16T09:06:42;98959.41;;;3.06;76.44
77799;BME280;66989;50.426;15.352;2023-03-16T09:09:07;98955.09;;;4.02;72.74
77799;BME280;66989;50.426;15.352;2023-03-16T09:11:34;98952.84;;;4.80;70.20
77799;BME280;66989;50.426;15.352;2023-03-16T09:14:02;98962.13;;;4.87;69.34
77799;BME280;66989;50.426;15.352;2023-03-16T09:16:31;98971.16;;;5.62;65.48
77799;BME280;66989;50.426;15.352;2023-03-16T09:18:56;98962.28;;;6.04;64.86
77799;BME280;66989;50.426;15.352;2023-03-16T09:21:22;98950.09;;;6.40;63.50
77799;BME280;66989;50.426;15.352;2023-03-16T09:23:48;98952.94;;;6.17;63.53
77799;BME280;66989;50.426;15.352;2023-03-16T09:26:13;98952.50;;;6.99;61.65
77799;BME280;66989;50.426;15.352;2023-03-16T09:28:40;98960.25;;;7.85;58.17
77799;BME280;66989;50.426;15.352;2023-03-16T09:31:07;98953.03;;;8.53;56.50
77799;BME280;66989;50.426;15.352;2023-03-16T09:33:33;98956.50;;;8.70;56.40
77799;BME280;66989;50.426;15.352;2023-03-16T09:35:59;98955.50;;;9.47;53.64
77799;BME280;66989;50.426;15.352;2023-03-16T09:38:26;98963.50;;;9.15;52.87
77799;BME280;66989;50.426;15.352;2023-03-16T09:40:57;98966.81;;;9.19;53.92
77799;BME280;66989;50.426;15.352;2023-03-16T09:46:26;98965.47;;;8.66;56.39
77799;BME280;66989;50.426;15.352;2023-03-16T09:48:55;98969.63;;;9.16;55.26
77799;BME280;66989;50.426;15.352;2023-03-16T09:54:12;98951.81;;;11.29;48.82
77799;BME280;66989;50.426;15.352;2023-03-16T09:56:41;98943.63;;;11.46;47.64
77799;BME280;66989;50.426;15.352;2023-03-16T09:59:12;98942.03;;;11.44;48.24
77799;BME280;66989;50.426;15.352;2023-03-16T10:01:57;98948.56;;;11.25;48.65
77799;BME280;66989;50.426;15.352;2023-03-16T10:04:48;98943.50;;;11.86;49.16
77799;BME280;66989;50.426;15.352;2023-03-16T10:12:43;98941.63;;;11.62;48.85
77799;BME280;66989;50.426;15.352;2023-03-16T10:15:23;98935.97;;;11.29;50.80
77799;BME280;66989;50.426;15.352;2023-03-16T10:18:00;98939.88;;;11.10;50.76
77799;BME280;66989;50.426;15.352;2023-03-16T10:20:30;98940.59;;;12.27;47.59
77799;BME280;66989;50.426;15.352;2023-03-16T10:22:57;98944.94;;;12.15;47.91
77799;BME280;66989;50.426;15.352;2023-03-16T10:27:53;98938.03;;;12.62;47.94
77799;BME280;66989;50.426;15.352;2023-03-16T10:30:31;98939.84;;;12.62;47.00
77799;BME280;66989;50.426;15.352;2023-03-16T10:33:03;98939.59;;;11.79;48.61
77799;BME280;66989;50.426;15.352;2023-03-16T10:40:58;98941.59;;;11.88;49.30
77799;BME280;66989;50.426;15.352;2023-03-16T10:43:24;98946.75;;;11.77;48.76
77799;BME280;66989;50.426;15.352;2023-03-16T10:45:49;98941.63;;;11.62;49.67
77799;BME280;66989;50.426;15.352;2023-03-16T10:48:19;98940.00;;;12.24;45.86
77799;BME280;66989;50.426;15.352;2023-03-16T10:50:51;98935.13;;;13.48;46.17
77799;BME280;66989;50.426;15.352;2023-03-16T10:53:29;98931.13;;;12.73;46.05
77799;BME280;66989;50.426;15.352;2023-03-16T10:56:07;98937.19;;;13.67;43.23
77799;BME280;66989;50.426;15.352;2023-03-16T10:58:33;98927.81;;;14.31;39.08
77799;BME280;66989;50.426;15.352;2023-03-16T11:01:00;98926.53;;;13.34;39.39
77799;BME280;66989;50.426;15.352;2023-03-16T11:03:28;98927.75;;;13.41;38.82
77799;BME280;66989;50.426;15.352;2023-03-16T11:06:01;98928.06;;;13.25;38.51
77799;BME280;66989;50.426;15.352;2023-03-16T11:08:31;98916.94;;;13.55;39.07
77799;BME280;66989;50.426;15.352;2023-03-16T11:11:08;98913.13;;;13.13;39.94
77799;BME280;66989;50.426;15.352;2023-03-16T11:13:36;98911.78;;;13.07;39.75
77799;BME280;66989;50.426;15.352;2023-03-16T11:16:23;98906.47;;;12.72;40.87
77799;BME280;66989;50.426;15.352;2023-03-16T11:19:18;98915.84;;;10.34;44.72
77799;BME280;66989;50.426;15.352;2023-03-16T11:21:51;98906.91;;;12.42;41.83
77799;BME280;66989;50.426;15.352;2023-03-16T11:24:48;98908.28;;;13.53;38.21
77799;BME280;66989;50.426;15.352;2023-03-16T11:27:29;98895.63;;;15.62;34.04
77799;BME280;66989;50.426;15.352;2023-03-16T11:32:36;98911.28;;;13.60;35.72
77799;BME280;66989;50.426;15.352;2023-03-16T11:35:11;98893.66;;;15.54;33.72
77799;BME280;66989;50.426;15.352;2023-03-16T11:40:36;98883.97;;;17.50;30.35
77799;BME280;66989;50.426;15.352;2023-03-16T11:48:27;98884.03;;;16.44;30.05
77799;BME280;66989;50.426;15.352;2023-03-16T12:00:54;98887.56;;;14.90;33.04
77799;BME280;66989;50.426;15.352;2023-03-16T12:11:53;98869.97;;;14.89;32.70
77799;BME280;66989;50.426;15.352;2023-03-16T12:14:26;98871.94;;;15.49;31.35
77799;BME280;66989;50.426;15.352;2023-03-16T12:22:20;98862.75;;;15.63;31.91
77799;BME280;66989;50.426;15.352;2023-03-16T12:24:47;98879.34;;;13.28;34.31
77799;BME280;66989;50.426;15.352;2023-03-16T12:27:36;98874.31;;;13.92;33.73
77799;BME280;66989;50.426;15.352;2023-03-16T12:33:07;98858.91;;;16.37;29.35
77799;BME280;66989;50.426;15.352;2023-03-16T12:35:55;98863.03;;;16.60;29.74
77799;BME280;66989;50.426;15.352;2023-03-16T12:38:38;98860.50;;;17.07;27.43
77799;BME280;66989;50.426;15.352;2023-03-16T12:46:12;98858.34;;;17.40;27.74
77799;BME280;66989;50.426;15.352;2023-03-16T12:48:46;98843.72;;;18.81;25.41
77799;BME280;66989;50.426;15.352;2023-03-16T12:51:12;98842.06;;;18.80;24.58
77799;BME280;66989;50.426;15.352;2023-03-16T12:56:09;98861.56;;;13.97;31.29
77799;BME280;66989;50.426;15.352;2023-03-16T12:58:40;98854.34;;;14.74;30.37
77799;BME280;66989;50.426;15.352;2023-03-16T13:01:09;98847.97;;;14.34;31.19
77799;BME280;66989;50.426;15.352;2023-03-16T13:03:35;98860.19;;;13.46;32.30
77799;BME280;66989;50.426;15.352;2023-03-16T13:06:02;98863.19;;;12.84;32.48
77799;BME280;66989;50.426;15.352;2023-03-16T13:08:40;98858.16;;;13.61;31.44
77799;BME280;66989;50.426;15.352;2023-03-16T13:11:11;98854.81;;;13.82;29.28
77799;BME280;66989;50.426;15.352;2023-03-16T13:14:04;98861.47;;;12.96;30.88
77799;BME280;66989;50.426;15.352;2023-03-16T13:16:34;98859.56;;;13.32;31.18
77799;BME280;66989;50.426;15.352;2023-03-16T13:21:43;98847.22;;;14.75;28.26
77799;BME280;66989;50.426;15.352;2023-03-16T13:24:36;98838.34;;;14.33;26.61
77799;BME280;66989;50.426;15.352;2023-03-16T13:29:57;98847.59;;;14.38;28.83
77799;BME280;66989;50.426;15.352;2023-03-16T13:32:25;98839.47;;;15.04;27.95
77799;BME280;66989;50.426;15.352;2023-03-16T13:34:57;98838.81;;;15.63;26.83
77799;BME280;66989;50.426;15.352;2023-03-16T13:37:24;98842.00;;;15.88;27.39
77799;BME280;66989;50.426;15.352;2023-03-16T13:39:53;98843.09;;;14.82;27.26
77799;BME280;66989;50.426;15.352;2023-03-16T13:42:21;98850.66;;;14.22;26.68
77799;BME280;66989;50.426;15.352;2023-03-16T13:44:51;98844.41;;;14.76;26.39
77799;BME280;66989;50.426;15.352;2023-03-16T13:47:18;98837.41;;;15.59;27.01
77799;BME280;66989;50.426;15.352;2023-03-16T13:49:46;98838.66;;;13.96;31.61
77799;BME280;66989;50.426;15.352;2023-03-16T13:52:30;98829.56;;;14.53;31.56
77799;BME280;66989;50.426;15.352;2023-03-16T13:54:58;98846.09;;;14.13;32.10
77799;BME280;66989;50.426;15.352;2023-03-16T13:57:26;98829.16;;;14.37;31.74
77799;BME280;66989;50.426;15.352;2023-03-16T14:00:22;98825.47;;;15.02;30.68
77799;BME280;66989;50.426;15.352;2023-03-16T14:02:52;98823.72;;;15.64;30.45
77799;BME280;66989;50.426;15.352;2023-03-16T14:05:22;98826.78;;;15.28;30.93